sensor_id;sensor_type;location;lat;lon;timestamp;temperature;humidity
65854;DHT22;52627;48.838;2.402;2023-04-24T00:01:25;9.92;74.71
65854;DHT22;52627;48.838;2.402;2023-04-24T00:03:51;9.91;74.77
65854;DHT22;52627;48.838;2.402;2023-04-24T00:06:19;9.89;74.80
65854;DHT22;52627;48.838;2.402;2023-04-24T00:08:45;9.88;74.81
65854;DHT22;52627;48.838;2.402;2023-04-24T00:11:12;9.88;74.83
65854;DHT22;52627;48.838;2.402;2023-04-24T00:13:39;9.85;74.83
65854;DHT22;52627;48.838;2.402;2023-04-24T00:16:06;9.84;74.90
65854;DHT22;52627;48.838;2.402;2023-04-24T00:18:32;9.83;74.91
65854;DHT22;52627;48.838;2.402;2023-04-24T00:20:59;9.82;74.91
65854;DHT22;52627;48.838;2.402;2023-04-24T00:23:26;9.80;75.00
65854;DHT22;52627;48.838;2.402;2023-04-24T00:25:53;9.79;75.00
65854;DHT22;52627;48.838;2.402;2023-04-24T00:28:19;9.77;75.02
65854;DHT22;52627;48.838;2.402;2023-04-24T00:30:46;9.76;75.07
65854;DHT22;52627;48.838;2.402;2023-04-24T00:33:13;9.76;75.10
65854;DHT22;52627;48.838;2.402;2023-04-24T00:35:40;9.75;75.11
65854;DHT22;52627;48.838;2.402;2023-04-24T00:38:07;9.74;75.15
65854;DHT22;52627;48.838;2.402;2023-04-24T00:40:33;9.74;75.20
65854;DHT22;52627;48.838;2.402;2023-04-24T00:43:00;9.73;75.20
65854;DHT22;52627;48.838;2.402;2023-04-24T00:45:27;9.72;75.21
65854;DHT22;52627;48.838;2.402;2023-04-24T00:47:54;9.70;75.20
65854;DHT22;52627;48.838;2.402;2023-04-24T00:50:21;9.68;75.20
65854;DHT22;52627;48.838;2.402;2023-04-24T00:52:48;9.67;75.20
65854;DHT22;52627;48.838;2.402;2023-04-24T00:55:15;9.66;75.25
65854;DHT22;52627;48.838;2.402;2023-04-24T00:57:44;9.65;75.30
65854;DHT22;52627;48.838;2.402;2023-04-24T01:00:11;9.65;75.30
65854;DHT22;52627;48.838;2.402;2023-04-24T01:02:39;9.64;75.30
65854;DHT22;52627;48.838;2.402;2023-04-24T01:05:14;9.63;75.30
65854;DHT22;52627;48.838;2.402;2023-04-24T01:07:43;9.61;75.30
65854;DHT22;52627;48.838;2.402;2023-04-24T01:10:13;9.60;75.36
65854;DHT22;52627;48.838;2.402;2023-04-24T01:12:41;9.58;75.39
65854;DHT22;52627;48.838;2.402;2023-04-24T01:15:08;9.58;75.39
65854;DHT22;52627;48.838;2.402;2023-04-24T01:17:36;9.58;75.48
65854;DHT22;52627;48.838;2.402;2023-04-24T01:20:03;9.58;75.50
65854;DHT22;52627;48.838;2.402;2023-04-24T01:22:33;9.60;75.50
65854;DHT22;52627;48.838;2.402;2023-04-24T01:25:01;9.60;75.52
65854;DHT22;52627;48.838;2.402;2023-04-24T01:27:29;9.61;75.60
65854;DHT22;52627;48.838;2.402;2023-04-24T01:29:56;9.60;75.57
65854;DHT22;52627;48.838;2.402;2023-04-24T01:32:23;9.61;75.59
65854;DHT22;52627;48.838;2.402;2023-04-24T01:34:51;9.61;75.59
65854;DHT22;52627;48.838;2.402;2023-04-24T01:37:18;9.62;75.60
65854;DHT22;52627;48.838;2.402;2023-04-24T01:39:45;9.62;75.60
65854;DHT22;52627;48.838;2.402;2023-04-24T01:42:12;9.62;75.60
65854;DHT22;52627;48.838;2.402;2023-04-24T01:44:39;9.64;75.64
65854;DHT22;52627;48.838;2.402;2023-04-24T01:47:07;9.64;75.63
65854;DHT22;52627;48.838;2.402;2023-04-24T01:49:34;9.66;75.63
65854;DHT22;52627;48.838;2.402;2023-04-24T01:52:01;9.65;75.60
65854;DHT22;52627;48.838;2.402;2023-04-24T01:54:28;9.64;75.62
65854;DHT22;52627;48.838;2.402;2023-04-24T01:56:54;9.64;75.64
65854;DHT22;52627;48.838;2.402;2023-04-24T01:59:21;9.63;75.64
65854;DHT22;52627;48.838;2.402;2023-04-24T02:01:49;9.64;75.64
65854;DHT22;52627;48.838;2.402;2023-04-24T02:04:16;9.64;75.63
65854;DHT22;52627;48.838;2.402;2023-04-24T02:06:43;9.65;75.68
65854;DHT22;52627;48.838;2.402;2023-04-24T02:09:10;9.65;75.64
65854;DHT22;52627;48.838;2.402;2023-04-24T02:11:37;9.65;75.63
65854;DHT22;52627;48.838;2.402;2023-04-24T02:14:04;9.65;75.61
65854;DHT22;52627;48.838;2.402;2023-04-24T02:16:30;9.65;75.60
65854;DHT22;52627;48.838;2.402;2023-04-24T02:18:59;9.66;75.62
65854;DHT22;52627;48.838;2.402;2023-04-24T02:21:26;9.68;75.62
65854;DHT22;52627;48.838;2.402;2023-04-24T02:23:54;9.69;75.62
65854;DHT22;52627;48.838;2.402;2023-04-24T02:26:21;9.70;75.65
65854;DHT22;52627;48.838;2.402;2023-04-24T02:28:48;9.71;75.60
65854;DHT22;52627;48.838;2.402;2023-04-24T02:31:14;9.71;75.60
65854;DHT22;52627;48.838;2.402;2023-04-24T02:33:41;9.71;75.63
65854;DHT22;52627;48.838;2.402;2023-04-24T02:36:08;9.71;75.63
65854;DHT22;52627;48.838;2.402;2023-04-24T02:38:35;9.74;75.69
65854;DHT22;52627;48.838;2.402;2023-04-24T02:41:02;9.75;75.66
65854;DHT22;52627;48.838;2.402;2023-04-24T02:43:32;9.76;75.67
65854;DHT22;52627;48.838;2.402;2023-04-24T02:46:00;9.76;75.62
65854;DHT22;52627;48.838;2.402;2023-04-24T02:48:26;9.76;75.60
65854;DHT22;52627;48.838;2.402;2023-04-24T02:50:54;9.76;75.60
65854;DHT22;52627;48.838;2.402;2023-04-24T02:53:21;9.77;75.60
65854;DHT22;52627;48.838;2.402;2023-04-24T02:55:47;9.77;75.62
65854;DHT22;52627;48.838;2.402;2023-04-24T02:58:14;9.77;75.60
65854;DHT22;52627;48.838;2.402;2023-04-24T03:00:42;9.78;75.61
65854;DHT22;52627;48.838;2.402;2023-04-24T03:03:09;9.79;75.63
65854;DHT22;52627;48.838;2.402;2023-04-24T03:05:36;9.80;75.70
65854;DHT22;52627;48.838;2.402;2023-04-24T03:08:03;9.81;75.70
65854;DHT22;52627;48.838;2.402;2023-04-24T03:10:30;9.81;75.68
65854;DHT22;52627;48.838;2.402;2023-04-24T03:12:58;9.83;75.70
65854;DHT22;52627;48.838;2.402;2023-04-24T03:15:25;9.83;75.68
65854;DHT22;52627;48.838;2.402;2023-04-24T03:17:52;9.83;75.61
65854;DHT22;52627;48.838;2.402;2023-04-24T03:20:22;9.82;75.61
65854;DHT22;52627;48.838;2.402;2023-04-24T03:22:50;9.82;75.65
65854;DHT22;52627;48.838;2.402;2023-04-24T03:25:16;9.82;75.66
65854;DHT22;52627;48.838;2.402;2023-04-24T03:27:43;9.82;75.64
65854;DHT22;52627;48.838;2.402;2023-04-24T03:30:10;9.81;75.70
65854;DHT22;52627;48.838;2.402;2023-04-24T03:32:37;9.83;75.70
65854;DHT22;52627;48.838;2.402;2023-04-24T03:35:08;9.83;75.70
65854;DHT22;52627;48.838;2.402;2023-04-24T03:37:35;9.81;75.60
65854;DHT22;52627;48.838;2.402;2023-04-24T03:40:02;9.81;75.61
65854;DHT22;52627;48.838;2.402;2023-04-24T03:42:30;9.82;75.61
65854;DHT22;52627;48.838;2.402;2023-04-24T03:44:57;9.81;75.61
65854;DHT22;52627;48.838;2.402;2023-04-24T03:47:24;9.80;75.63
65854;DHT22;52627;48.838;2.402;2023-04-24T03:49:50;9.80;75.66
65854;DHT22;52627;48.838;2.402;2023-04-24T03:52:18;9.81;75.66
65854;DHT22;52627;48.838;2.402;2023-04-24T03:54:45;9.80;75.67
65854;DHT22;52627;48.838;2.402;2023-04-24T03:57:12;9.81;75.69
65854;DHT22;52627;48.838;2.402;2023-04-24T03:59:38;9.81;75.68
65854;DHT22;52627;48.838;2.402;2023-04-24T04:02:05;9.81;75.69
65854;DHT22;52627;48.838;2.402;2023-04-24T04:04:32;9.82;75.70
65854;DHT22;52627;48.838;2.402;2023-04-24T04:06:59;9.81;75.67
65854;DHT22;52627;48.838;2.402;2023-04-24T04:09:29;9.81;75.70
65854;DHT22;52627;48.838;2.402;2023-04-24T04:11:56;9.81;75.70
65854;DHT22;52627;48.838;2.402;2023-04-24T04:14:22;9.80;75.70
65854;DHT22;52627;48.838;2.402;2023-04-24T04:16:49;9.80;75.70
65854;DHT22;52627;48.838;2.402;2023-04-24T04:19:20;9.80;75.74
65854;DHT22;52627;48.838;2.402;2023-04-24T04:21:47;9.81;75.80
65854;DHT22;52627;48.838;2.402;2023-04-24T04:24:19;9.81;75.80
65854;DHT22;52627;48.838;2.402;2023-04-24T04:26:50;9.80;75.73
65854;DHT22;52627;48.838;2.402;2023-04-24T04:29:17;9.79;75.79
65854;DHT22;52627;48.838;2.402;2023-04-24T04:31:48;9.80;75.79
65854;DHT22;52627;48.838;2.402;2023-04-24T04:34:15;9.79;75.80
65854;DHT22;52627;48.838;2.402;2023-04-24T04:36:42;9.78;75.80
65854;DHT22;52627;48.838;2.402;2023-04-24T04:39:09;9.79;75.80
65854;DHT22;52627;48.838;2.402;2023-04-24T04:41:36;9.79;75.87
65854;DHT22;52627;48.838;2.402;2023-04-24T04:44:06;9.80;75.90
65854;DHT22;52627;48.838;2.402;2023-04-24T04:46:35;9.81;75.90
65854;DHT22;52627;48.838;2.402;2023-04-24T04:49:03;9.80;75.88
65854;DHT22;52627;48.838;2.402;2023-04-24T04:51:31;9.80;75.90
65854;DHT22;52627;48.838;2.402;2023-04-24T04:53:58;9.81;75.90
65854;DHT22;52627;48.838;2.402;2023-04-24T04:56:24;9.81;75.92
65854;DHT22;52627;48.838;2.402;2023-04-24T04:58:51;9.82;75.97
65854;DHT22;52627;48.838;2.402;2023-04-24T05:01:18;9.81;76.00
65854;DHT22;52627;48.838;2.402;2023-04-24T05:03:45;9.81;76.00
65854;DHT22;52627;48.838;2.402;2023-04-24T05:06:12;9.81;76.00
65854;DHT22;52627;48.838;2.402;2023-04-24T05:08:39;9.81;76.01
65854;DHT22;52627;48.838;2.402;2023-04-24T05:11:06;9.81;76.01
65854;DHT22;52627;48.838;2.402;2023-04-24T05:13:33;9.81;76.01
65854;DHT22;52627;48.838;2.402;2023-04-24T05:16:07;9.80;76.05
65854;DHT22;52627;48.838;2.402;2023-04-24T05:18:34;9.81;76.10
65854;DHT22;52627;48.838;2.402;2023-04-24T05:21:01;9.81;76.10
65854;DHT22;52627;48.838;2.402;2023-04-24T05:23:28;9.82;76.10
65854;DHT22;52627;48.838;2.402;2023-04-24T05:25:55;9.84;76.12
65854;DHT22;52627;48.838;2.402;2023-04-24T05:28:21;9.86;76.12
65854;DHT22;52627;48.838;2.402;2023-04-24T05:30:48;9.87;76.17
65854;DHT22;52627;48.838;2.402;2023-04-24T05:33:15;9.89;76.19
65854;DHT22;52627;48.838;2.402;2023-04-24T05:35:41;9.93;76.20
65854;DHT22;52627;48.838;2.402;2023-04-24T05:38:13;9.96;76.19
65854;DHT22;52627;48.838;2.402;2023-04-24T05:40:40;9.98;76.20
65854;DHT22;52627;48.838;2.402;2023-04-24T05:43:07;10.02;76.20
65854;DHT22;52627;48.838;2.402;2023-04-24T05:45:33;10.05;76.20
65854;DHT22;52627;48.838;2.402;2023-04-24T05:48:02;10.09;76.20
65854;DHT22;52627;48.838;2.402;2023-04-24T05:50:30;10.13;76.20
65854;DHT22;52627;48.838;2.402;2023-04-24T05:52:56;10.17;76.20
65854;DHT22;52627;48.838;2.402;2023-04-24T05:55:29;10.21;76.20
65854;DHT22;52627;48.838;2.402;2023-04-24T05:57:57;10.25;76.12
65854;DHT22;52627;48.838;2.402;2023-04-24T06:00:24;10.28;76.12
65854;DHT22;52627;48.838;2.402;2023-04-24T06:02:52;10.30;76.10
65854;DHT22;52627;48.838;2.402;2023-04-24T06:05:19;10.33;76.10
65854;DHT22;52627;48.838;2.402;2023-04-24T06:07:47;10.35;76.09
65854;DHT22;52627;48.838;2.402;2023-04-24T06:10:14;10.38;76.07
65854;DHT22;52627;48.838;2.402;2023-04-24T06:12:41;10.40;76.04
65854;DHT22;52627;48.838;2.402;2023-04-24T06:15:08;10.41;76.02
65854;DHT22;52627;48.838;2.402;2023-04-24T06:17:36;10.45;76.09
65854;DHT22;52627;48.838;2.402;2023-04-24T06:20:03;10.49;76.02
65854;DHT22;52627;48.838;2.402;2023-04-24T06:22:32;10.52;76.00
65854;DHT22;52627;48.838;2.402;2023-04-24T06:24:59;10.53;75.94
65854;DHT22;52627;48.838;2.402;2023-04-24T06:27:27;10.55;75.96
65854;DHT22;52627;48.838;2.402;2023-04-24T06:29:53;10.60;75.96
65854;DHT22;52627;48.838;2.402;2023-04-24T06:32:22;10.64;75.91
65854;DHT22;52627;48.838;2.402;2023-04-24T06:34:51;10.66;75.89
65854;DHT22;52627;48.838;2.402;2023-04-24T06:37:21;10.70;75.84
65854;DHT22;52627;48.838;2.402;2023-04-24T06:39:48;10.72;75.81
65854;DHT22;52627;48.838;2.402;2023-04-24T06:42:15;10.75;75.80
65854;DHT22;52627;48.838;2.402;2023-04-24T06:44:42;10.79;75.75
65854;DHT22;52627;48.838;2.402;2023-04-24T06:47:09;10.78;75.70
65854;DHT22;52627;48.838;2.402;2023-04-24T06:49:39;10.78;75.67
65854;DHT22;52627;48.838;2.402;2023-04-24T06:52:06;10.77;75.67
65854;DHT22;52627;48.838;2.402;2023-04-24T06:54:33;10.84;75.63
65854;DHT22;52627;48.838;2.402;2023-04-24T06:57:00;10.99;75.60
65854;DHT22;52627;48.838;2.402;2023-04-24T06:59:28;11.09;75.51
65854;DHT22;52627;48.838;2.402;2023-04-24T07:01:56;11.13;75.50
65854;DHT22;52627;48.838;2.402;2023-04-24T07:04:23;11.23;75.41
65854;DHT22;52627;48.838;2.402;2023-04-24T07:06:51;11.41;75.32
65854;DHT22;52627;48.838;2.402;2023-04-24T07:09:20;11.62;75.26
65854;DHT22;52627;48.838;2.402;2023-04-24T07:11:48;11.85;75.08
65854;DHT22;52627;48.838;2.402;2023-04-24T07:14:15;12.12;74.90
65854;DHT22;52627;48.838;2.402;2023-04-24T07:16:42;12.19;74.75
65854;DHT22;52627;48.838;2.402;2023-04-24T07:19:09;12.21;74.72
65854;DHT22;52627;48.838;2.402;2023-04-24T07:21:36;12.28;74.58
65854;DHT22;52627;48.838;2.402;2023-04-24T07:24:03;12.29;74.37
65854;DHT22;52627;48.838;2.402;2023-04-24T07:26:30;12.29;74.19
65854;DHT22;52627;48.838;2.402;2023-04-24T07:28:57;12.26;74.05
65854;DHT22;52627;48.838;2.402;2023-04-24T07:31:24;12.20;73.87
65854;DHT22;52627;48.838;2.402;2023-04-24T07:33:52;12.14;73.80
65854;DHT22;52627;48.838;2.402;2023-04-24T07:36:19;12.12;73.73
65854;DHT22;52627;48.838;2.402;2023-04-24T07:38:46;12.10;73.61
65854;DHT22;52627;48.838;2.402;2023-04-24T07:41:13;12.06;73.60
65854;DHT22;52627;48.838;2.402;2023-04-24T07:43:40;12.06;73.54
65854;DHT22;52627;48.838;2.402;2023-04-24T07:46:08;12.05;73.45
65854;DHT22;52627;48.838;2.402;2023-04-24T07:48:36;12.06;73.36
65854;DHT22;52627;48.838;2.402;2023-04-24T07:51:03;12.07;73.29
65854;DHT22;52627;48.838;2.402;2023-04-24T07:53:29;12.09;73.19
65854;DHT22;52627;48.838;2.402;2023-04-24T07:55:56;12.10;73.11
65854;DHT22;52627;48.838;2.402;2023-04-24T07:58:23;12.08;72.97
65854;DHT22;52627;48.838;2.402;2023-04-24T08:00:50;12.06;72.92
65854;DHT22;52627;48.838;2.402;2023-04-24T08:03:17;12.04;72.87
65854;DHT22;52627;48.838;2.402;2023-04-24T08:05:46;12.04;72.80
65854;DHT22;52627;48.838;2.402;2023-04-24T08:08:13;12.05;72.79
65854;DHT22;52627;48.838;2.402;2023-04-24T08:10:41;12.02;72.65
65854;DHT22;52627;48.838;2.402;2023-04-24T08:13:07;11.98;72.57
65854;DHT22;52627;48.838;2.402;2023-04-24T08:15:34;11.93;72.50
65854;DHT22;52627;48.838;2.402;2023-04-24T08:18:01;11.91;72.50
65854;DHT22;52627;48.838;2.402;2023-04-24T08:20:28;11.89;72.45
65854;DHT22;52627;48.838;2.402;2023-04-24T08:22:56;11.87;72.43
65854;DHT22;52627;48.838;2.402;2023-04-24T08:25:22;11.90;72.40
65854;DHT22;52627;48.838;2.402;2023-04-24T08:27:51;11.94;72.32
65854;DHT22;52627;48.838;2.402;2023-04-24T08:30:18;12.03;72.33
65854;DHT22;52627;48.838;2.402;2023-04-24T08:32:45;12.18;72.25
65854;DHT22;52627;48.838;2.402;2023-04-24T08:35:12;12.32;72.17
65854;DHT22;52627;48.838;2.402;2023-04-24T08:37:39;12.48;72.08
65854;DHT22;52627;48.838;2.402;2023-04-24T08:40:12;12.73;71.99
65854;DHT22;52627;48.838;2.402;2023-04-24T08:42:41;13.24;71.82
65854;DHT22;52627;48.838;2.402;2023-04-24T08:45:11;14.05;71.62
65854;DHT22;52627;48.838;2.402;2023-04-24T08:47:40;14.64;71.37
65854;DHT22;52627;48.838;2.402;2023-04-24T08:50:08;14.83;70.88
65854;DHT22;52627;48.838;2.402;2023-04-24T08:52:36;14.86;70.56
65854;DHT22;52627;48.838;2.402;2023-04-24T08:55:05;14.91;70.33
65854;DHT22;52627;48.838;2.402;2023-04-24T08:57:32;14.85;69.91
65854;DHT22;52627;48.838;2.402;2023-04-24T08:59:59;14.81;69.86
65854;DHT22;52627;48.838;2.402;2023-04-24T09:02:26;14.75;69.44
65854;DHT22;52627;48.838;2.402;2023-04-24T09:04:54;14.72;69.31
65854;DHT22;52627;48.838;2.402;2023-04-24T09:07:24;14.80;69.21
65854;DHT22;52627;48.838;2.402;2023-04-24T09:09:53;14.85;68.87
65854;DHT22;52627;48.838;2.402;2023-04-24T09:12:20;14.83;68.62
65854;DHT22;52627;48.838;2.402;2023-04-24T09:14:47;14.79;68.41
65854;DHT22;52627;48.838;2.402;2023-04-24T09:17:15;14.75;68.22
65854;DHT22;52627;48.838;2.402;2023-04-24T09:19:41;14.78;68.08
65854;DHT22;52627;48.838;2.402;2023-04-24T09:22:09;14.84;67.90
65854;DHT22;52627;48.838;2.402;2023-04-24T09:24:35;14.85;67.67
65854;DHT22;52627;48.838;2.402;2023-04-24T09:27:02;14.80;67.41
65854;DHT22;52627;48.838;2.402;2023-04-24T09:29:30;14.74;67.31
65854;DHT22;52627;48.838;2.402;2023-04-24T09:31:59;14.66;67.09
65854;DHT22;52627;48.838;2.402;2023-04-24T09:34:26;14.57;66.87
65854;DHT22;52627;48.838;2.402;2023-04-24T09:36:54;14.44;66.70
65854;DHT22;52627;48.838;2.402;2023-04-24T09:39:21;14.33;66.52
65854;DHT22;52627;48.838;2.402;2023-04-24T09:41:55;14.27;66.50
65854;DHT22;52627;48.838;2.402;2023-04-24T09:44:27;14.28;66.35
65854;DHT22;52627;48.838;2.402;2023-04-24T09:46:55;14.29;66.15
65854;DHT22;52627;48.838;2.402;2023-04-24T09:49:25;14.27;66.02
65854;DHT22;52627;48.838;2.402;2023-04-24T09:52:07;14.27;65.94
65854;DHT22;52627;48.838;2.402;2023-04-24T09:54:36;14.27;65.83
65854;DHT22;52627;48.838;2.402;2023-04-24T09:57:04;14.30;65.74
65854;DHT22;52627;48.838;2.402;2023-04-24T09:59:35;14.39;65.70
65854;DHT22;52627;48.838;2.402;2023-04-24T10:02:17;14.48;65.60
65854;DHT22;52627;48.838;2.402;2023-04-24T10:04:56;14.60;65.51
65854;DHT22;52627;48.838;2.402;2023-04-24T10:07:26;14.73;65.32
65854;DHT22;52627;48.838;2.402;2023-04-24T10:09:53;14.87;65.12
65854;DHT22;52627;48.838;2.402;2023-04-24T10:12:21;14.90;64.80
65854;DHT22;52627;48.838;2.402;2023-04-24T10:14:49;14.86;64.53
65854;DHT22;52627;48.838;2.402;2023-04-24T10:17:18;14.85;64.30
65854;DHT22;52627;48.838;2.402;2023-04-24T10:19:47;14.94;64.27
65854;DHT22;52627;48.838;2.402;2023-04-24T10:22:15;15.09;64.12
65854;DHT22;52627;48.838;2.402;2023-04-24T10:24:45;15.30;63.88
65854;DHT22;52627;48.838;2.402;2023-04-24T10:27:16;15.41;63.51
65854;DHT22;52627;48.838;2.402;2023-04-24T10:29:43;15.48;63.38
65854;DHT22;52627;48.838;2.402;2023-04-24T10:32:12;15.55;63.10
65854;DHT22;52627;48.838;2.402;2023-04-24T10:34:38;15.62;62.88
65854;DHT22;52627;48.838;2.402;2023-04-24T10:37:05;15.64;62.68
65854;DHT22;52627;48.838;2.402;2023-04-24T10:39:32;15.75;62.55
65854;DHT22;52627;48.838;2.402;2023-04-24T10:41:59;15.86;62.34
65854;DHT22;52627;48.838;2.402;2023-04-24T10:44:27;15.93;62.04
65854;DHT22;52627;48.838;2.402;2023-04-24T10:47:04;15.97;61.90
65854;DHT22;52627;48.838;2.402;2023-04-24T10:49:31;16.05;61.58
65854;DHT22;52627;48.838;2.402;2023-04-24T10:52:02;16.16;61.38
65854;DHT22;52627;48.838;2.402;2023-04-24T10:54:36;16.33;61.23
65854;DHT22;52627;48.838;2.402;2023-04-24T10:59:50;16.40;60.60
65854;DHT22;52627;48.838;2.402;2023-04-24T11:02:36;16.28;60.42
65854;DHT22;52627;48.838;2.402;2023-04-24T11:05:06;16.07;60.15
65854;DHT22;52627;48.838;2.402;2023-04-24T11:10:45;15.66;59.87
65854;DHT22;52627;48.838;2.402;2023-04-24T11:13:14;15.58;59.77
65854;DHT22;52627;48.838;2.402;2023-04-24T11:16:11;15.57;59.63
65854;DHT22;52627;48.838;2.402;2023-04-24T11:18:50;15.67;59.55
65854;DHT22;52627;48.838;2.402;2023-04-24T11:29:41;16.02;58.62
65854;DHT22;52627;48.838;2.402;2023-04-24T11:32:25;16.03;58.45
65854;DHT22;52627;48.838;2.402;2023-04-24T11:35:04;16.01;58.08
65854;DHT22;52627;48.838;2.402;2023-04-24T11:37:45;16.00;57.95
65854;DHT22;52627;48.838;2.402;2023-04-24T11:40:35;16.33;57.82
65854;DHT22;52627;48.838;2.402;2023-04-24T11:43:04;16.72;57.62
65854;DHT22;52627;48.838;2.402;2023-04-24T11:45:34;17.11;57.24
65854;DHT22;52627;48.838;2.402;2023-04-24T11:48:02;17.38;57.15
65854;DHT22;52627;48.838;2.402;2023-04-24T11:50:30;17.74;56.76
65854;DHT22;52627;48.838;2.402;2023-04-24T11:52:56;17.91;56.54
65854;DHT22;52627;48.838;2.402;2023-04-24T11:55:24;18.00;56.09
65854;DHT22;52627;48.838;2.402;2023-04-24T11:57:57;18.22;55.77
65854;DHT22;52627;48.838;2.402;2023-04-24T12:00:30;18.48;55.28
65854;DHT22;52627;48.838;2.402;2023-04-24T12:03:07;18.73;54.66
65854;DHT22;52627;48.838;2.402;2023-04-24T12:05:36;18.83;54.36
65854;DHT22;52627;48.838;2.402;2023-04-24T12:08:05;18.75;54.05
65854;DHT22;52627;48.838;2.402;2023-04-24T12:10:33;18.73;53.47
65854;DHT22;52627;48.838;2.402;2023-04-24T12:13:01;18.65;52.99
65854;DHT22;52627;48.838;2.402;2023-04-24T12:15:28;18.48;52.68
65854;DHT22;52627;48.838;2.402;2023-04-24T12:17:56;18.61;52.48
65854;DHT22;52627;48.838;2.402;2023-04-24T12:20:27;18.73;51.91
65854;DHT22;52627;48.838;2.402;2023-04-24T12:22:57;18.84;51.86
65854;DHT22;52627;48.838;2.402;2023-04-24T12:25:29;18.94;51.44
65854;DHT22;52627;48.838;2.402;2023-04-24T12:30:32;19.19;50.81
65854;DHT22;52627;48.838;2.402;2023-04-24T12:33:04;19.33;50.75
65854;DHT22;52627;48.838;2.402;2023-04-24T12:35:32;19.35;50.40
65854;DHT22;52627;48.838;2.402;2023-04-24T12:38:06;19.31;50.25
65854;DHT22;52627;48.838;2.402;2023-04-24T12:40:34;19.24;49.93
65854;DHT22;52627;48.838;2.402;2023-04-24T12:43:01;19.09;49.22
65854;DHT22;52627;48.838;2.402;2023-04-24T12:45:28;19.10;48.89
65854;DHT22;52627;48.838;2.402;2023-04-24T12:47:55;18.97;48.61
65854;DHT22;52627;48.838;2.402;2023-04-24T12:50:22;18.73;48.34
65854;DHT22;52627;48.838;2.402;2023-04-24T12:52:49;18.44;48.23
65854;DHT22;52627;48.838;2.402;2023-04-24T12:55:16;18.09;48.42
65854;DHT22;52627;48.838;2.402;2023-04-24T12:57:43;17.83;48.38
65854;DHT22;52627;48.838;2.402;2023-04-24T13:00:10;17.54;48.40
65854;DHT22;52627;48.838;2.402;2023-04-24T13:02:37;17.26;48.39
65854;DHT22;52627;48.838;2.402;2023-04-24T13:05:05;16.95;48.44
65854;DHT22;52627;48.838;2.402;2023-04-24T13:07:32;16.73;48.58
65854;DHT22;52627;48.838;2.402;2023-04-24T13:09:59;16.63;48.71
65854;DHT22;52627;48.838;2.402;2023-04-24T13:12:26;16.59;48.70
65854;DHT22;52627;48.838;2.402;2023-04-24T13:14:53;16.64;48.71
65854;DHT22;52627;48.838;2.402;2023-04-24T13:17:20;16.93;48.58
65854;DHT22;52627;48.838;2.402;2023-04-24T13:19:48;17.15;48.33
65854;DHT22;52627;48.838;2.402;2023-04-24T13:22:17;17.14;48.31
65854;DHT22;52627;48.838;2.402;2023-04-24T13:24:47;17.11;48.26
65854;DHT22;52627;48.838;2.402;2023-04-24T13:27:17;17.03;48.19
65854;DHT22;52627;48.838;2.402;2023-04-24T13:29:45;16.91;48.09
65854;DHT22;52627;48.838;2.402;2023-04-24T13:32:12;16.75;47.99
65854;DHT22;52627;48.838;2.402;2023-04-24T13:34:40;16.60;47.86
65854;DHT22;52627;48.838;2.402;2023-04-24T13:37:06;16.44;47.71
65854;DHT22;52627;48.838;2.402;2023-04-24T13:39:34;16.36;47.73
65854;DHT22;52627;48.838;2.402;2023-04-24T13:42:02;16.33;47.70
65854;DHT22;52627;48.838;2.402;2023-04-24T13:44:31;16.30;47.74
65854;DHT22;52627;48.838;2.402;2023-04-24T13:46:58;16.30;47.73
65854;DHT22;52627;48.838;2.402;2023-04-24T13:49:26;16.34;47.90
65854;DHT22;52627;48.838;2.402;2023-04-24T13:51:53;16.45;47.99
65854;DHT22;52627;48.838;2.402;2023-04-24T13:54:22;16.56;47.90
65854;DHT22;52627;48.838;2.402;2023-04-24T13:56:51;16.59;47.72
65854;DHT22;52627;48.838;2.402;2023-04-24T13:59:19;16.63;47.86
65854;DHT22;52627;48.838;2.402;2023-04-24T14:01:47;16.71;47.94
65854;DHT22;52627;48.838;2.402;2023-04-24T14:04:15;16.81;48.06
65854;DHT22;52627;48.838;2.402;2023-04-24T14:06:43;16.87;47.98
65854;DHT22;52627;48.838;2.402;2023-04-24T14:09:10;16.85;47.90
65854;DHT22;52627;48.838;2.402;2023-04-24T14:11:37;16.83;47.87
65854;DHT22;52627;48.838;2.402;2023-04-24T14:14:04;16.82;47.79
65854;DHT22;52627;48.838;2.402;2023-04-24T14:16:31;16.83;47.73
65854;DHT22;52627;48.838;2.402;2023-04-24T14:18:58;16.88;47.57
65854;DHT22;52627;48.838;2.402;2023-04-24T14:21:25;16.93;47.52
65854;DHT22;52627;48.838;2.402;2023-04-24T14:23:52;16.96;47.27
65854;DHT22;52627;48.838;2.402;2023-04-24T14:26:19;16.93;47.09
65854;DHT22;52627;48.838;2.402;2023-04-24T14:28:46;16.90;47.07
65854;DHT22;52627;48.838;2.402;2023-04-24T14:31:13;16.89;46.99
65854;DHT22;52627;48.838;2.402;2023-04-24T14:33:39;16.85;46.88
65854;DHT22;52627;48.838;2.402;2023-04-24T14:36:06;16.82;46.90
65854;DHT22;52627;48.838;2.402;2023-04-24T14:38:33;16.84;46.83
65854;DHT22;52627;48.838;2.402;2023-04-24T14:41:00;16.82;46.77
65854;DHT22;52627;48.838;2.402;2023-04-24T14:43:30;16.77;46.58
65854;DHT22;52627;48.838;2.402;2023-04-24T14:45:59;16.71;46.55
65854;DHT22;52627;48.838;2.402;2023-04-24T14:48:26;16.66;46.44
65854;DHT22;52627;48.838;2.402;2023-04-24T14:50:53;16.65;46.45
65854;DHT22;52627;48.838;2.402;2023-04-24T14:53:19;16.71;46.40
65854;DHT22;52627;48.838;2.402;2023-04-24T14:55:47;16.78;46.25
65854;DHT22;52627;48.838;2.402;2023-04-24T14:58:13;16.82;46.05
65854;DHT22;52627;48.838;2.402;2023-04-24T15:00:40;16.85;45.95
65854;DHT22;52627;48.838;2.402;2023-04-24T15:03:07;16.84;45.87
65854;DHT22;52627;48.838;2.402;2023-04-24T15:05:35;16.75;45.61
65854;DHT22;52627;48.838;2.402;2023-04-24T15:08:03;16.58;45.56
65854;DHT22;52627;48.838;2.402;2023-04-24T15:10:30;16.46;45.63
65854;DHT22;52627;48.838;2.402;2023-04-24T15:12:56;16.39;45.69
65854;DHT22;52627;48.838;2.402;2023-04-24T15:15:23;16.31;45.83
65854;DHT22;52627;48.838;2.402;2023-04-24T15:17:50;16.24;46.00
65854;DHT22;52627;48.838;2.402;2023-04-24T15:20:17;16.19;46.09
65854;DHT22;52627;48.838;2.402;2023-04-24T15:22:44;16.13;46.19
65854;DHT22;52627;48.838;2.402;2023-04-24T15:25:11;16.09;46.31
65854;DHT22;52627;48.838;2.402;2023-04-24T15:27:44;16.02;46.47
65854;DHT22;52627;48.838;2.402;2023-04-24T15:30:12;15.96;46.69
65854;DHT22;52627;48.838;2.402;2023-04-24T15:32:40;15.83;46.86
65854;DHT22;52627;48.838;2.402;2023-04-24T15:35:07;15.68;46.95
65854;DHT22;52627;48.838;2.402;2023-04-24T15:37:37;15.54;47.01
65854;DHT22;52627;48.838;2.402;2023-04-24T15:40:05;15.45;47.17
65854;DHT22;52627;48.838;2.402;2023-04-24T15:42:33;15.36;47.25
65854;DHT22;52627;48.838;2.402;2023-04-24T15:44:59;15.30;47.11
65854;DHT22;52627;48.838;2.402;2023-04-24T15:47:26;15.25;47.25
65854;DHT22;52627;48.838;2.402;2023-04-24T15:49:53;15.24;47.46
65854;DHT22;52627;48.838;2.402;2023-04-24T15:52:20;15.30;47.67
65854;DHT22;52627;48.838;2.402;2023-04-24T15:54:47;15.42;47.80
65854;DHT22;52627;48.838;2.402;2023-04-24T15:57:14;15.50;47.90
65854;DHT22;52627;48.838;2.402;2023-04-24T15:59:41;15.54;48.01